createdAt,value
2022-11-05T00:00:58.875Z,9.40
2022-11-05T00:03:48.276Z,9.40
2022-11-05T00:06:34.901Z,9.40
2022-11-05T00:09:21.609Z,9.40
2022-11-05T00:17:48.309Z,9.30
2022-11-05T00:23:31.890Z,9.20
2022-11-05T00:25:59.879Z,9.20
2022-11-05T00:28:43.271Z,9.20
2022-11-05T00:31:46.533Z,9.20
2022-11-05T00:34:48.129Z,9.10
2022-11-05T00:40:05.762Z,9.00
2022-11-05T00:42:54.842Z,9.00
2022-11-05T00:45:43.259Z,9.00
2022-11-05T00:48:31.803Z,9.00
2022-11-05T00:51:12.641Z,8.90
2022-11-05T00:53:41.646Z,8.90
2022-11-05T00:56:08.188Z,8.90
2022-11-05T00:58:34.693Z,8.90
2022-11-05T01:01:03.876Z,8.80
2022-11-05T01:03:37.598Z,8.90
2022-11-05T01:06:16.075Z,8.90
2022-11-05T01:09:18.022Z,8.90
2022-11-05T01:11:45.923Z,8.90
2022-11-05T01:14:23.696Z,9.00
2022-11-05T01:16:50.234Z,9.00
2022-11-05T01:19:19.731Z,9.00
2022-11-05T01:22:01.854Z,9.00
2022-11-05T01:24:31.635Z,9.00
2022-11-05T01:26:58.077Z,9.00
2022-11-05T01:29:24.504Z,9.00
2022-11-05T01:31:51.038Z,9.10
2022-11-05T01:34:17.729Z,9.00
2022-11-05T01:36:45.216Z,9.00
2022-11-05T01:39:30.583Z,9.00
2022-11-05T01:42:08.431Z,9.00
2022-11-05T01:45:06.701Z,9.00
2022-11-05T01:48:15.238Z,9.00
2022-11-05T01:50:52.538Z,8.90
2022-11-05T01:53:36.571Z,8.90
2022-11-05T01:56:06.719Z,8.90
2022-11-05T01:59:05.331Z,8.90
2022-11-05T02:04:37.317Z,8.90
2022-11-05T02:07:05.775Z,8.90
2022-11-05T02:09:44.036Z,8.90
2022-11-05T02:12:10.937Z,8.90
2022-11-05T02:14:38.771Z,8.90
2022-11-05T02:17:08.409Z,8.90
2022-11-05T02:19:54.205Z,8.90
2022-11-05T02:22:31.400Z,9.00
2022-11-05T02:28:30.300Z,9.00
2022-11-05T02:31:03.424Z,9.10
2022-11-05T02:37:02.571Z,9.10
2022-11-05T02:39:48.697Z,9.10
2022-11-05T02:42:21.756Z,9.10
2022-11-05T02:45:01.631Z,9.20
2022-11-05T02:47:50.856Z,9.20
2022-11-05T02:50:41.855Z,9.10
2022-11-05T02:53:27.924Z,9.20
2022-11-05T02:55:59.223Z,9.20
2022-11-05T03:03:57.208Z,9.20
2022-11-05T03:06:36.597Z,9.20
2022-11-05T03:09:24.229Z,9.20
2022-11-05T03:12:08.375Z,9.20
2022-11-05T03:14:42.769Z,9.20
2022-11-05T03:20:40.105Z,9.20
2022-11-05T03:23:14.302Z,9.20
2022-11-05T03:28:36.098Z,9.20
2022-11-05T03:33:52.492Z,9.20
2022-11-05T03:36:35.640Z,9.20
2022-11-05T03:39:12.923Z,9.20
2022-11-05T03:41:43.226Z,9.20
2022-11-05T03:44:21.400Z,9.20
2022-11-05T03:47:00.219Z,9.20
2022-11-05T03:49:42.844Z,9.20
2022-11-05T03:52:19.374Z,9.20
2022-11-05T03:54:56.656Z,9.20
2022-11-05T03:57:33.929Z,9.20
2022-11-05T04:00:55.917Z,9.20
2022-11-05T04:03:02.304Z,9.20
2022-11-05T04:05:39.836Z,9.20
2022-11-05T04:08:27.812Z,9.20
2022-11-05T04:13:55.634Z,9.20
2022-11-05T04:16:43.221Z,9.20
2022-11-05T04:19:38.641Z,9.20
2022-11-05T04:22:25.618Z,9.20
2022-11-05T04:24:52.042Z,9.20
2022-11-05T04:28:08.426Z,9.20
2022-11-05T04:30:40.410Z,9.20
2022-11-05T04:33:12.976Z,9.10
2022-11-05T04:35:43.007Z,9.10
2022-11-05T04:38:13.701Z,9.00
2022-11-05T04:40:44.274Z,9.00
2022-11-05T04:43:15.537Z,9.00
2022-11-05T04:45:44.231Z,8.90
2022-11-05T04:48:12.062Z,8.80
2022-11-05T04:50:47.652Z,8.80
2022-11-05T04:53:15.583Z,8.80
2022-11-05T04:55:55.272Z,8.70
2022-11-05T04:58:30.235Z,8.70
2022-11-05T05:01:00.831Z,8.60
2022-11-05T05:06:30.305Z,8.40
2022-11-05T05:09:13.170Z,8.40
2022-11-05T05:11:49.205Z,8.40
2022-11-05T05:14:22.309Z,8.30
2022-11-05T05:16:48.739Z,8.30
2022-11-05T05:19:16.858Z,8.30
2022-11-05T05:21:44.399Z,8.30
2022-11-05T05:24:12.427Z,8.30
2022-11-05T05:27:01.377Z,8.30
2022-11-05T05:29:37.202Z,8.30
2022-11-05T05:32:04.060Z,8.30
2022-11-05T05:34:30.720Z,8.30
2022-11-05T05:37:04.228Z,8.30
2022-11-05T05:39:30.712Z,8.30
2022-11-05T05:45:04.519Z,8.30
2022-11-05T05:50:19.151Z,8.30
2022-11-05T05:53:10.491Z,8.40
2022-11-05T05:55:37.058Z,8.40
2022-11-05T05:58:04.395Z,8.40
2022-11-05T06:00:30.868Z,8.40
2022-11-05T06:05:57.747Z,8.30
2022-11-05T06:08:27.605Z,8.40
2022-11-05T06:11:01.129Z,8.40
2022-11-05T06:13:40.530Z,8.50
2022-11-05T06:16:49.901Z,8.50
2022-11-05T06:22:38.188Z,8.60
2022-11-05T06:25:05.224Z,8.60
2022-11-05T06:27:31.658Z,8.60
2022-11-05T06:29:58.101Z,8.60
2022-11-05T06:32:30.486Z,8.60
2022-11-05T06:35:11.383Z,8.70
2022-11-05T06:43:19.775Z,8.70
2022-11-05T06:48:40.618Z,8.70
2022-11-05T06:51:07.835Z,8.70
2022-11-05T06:53:37.181Z,8.70
2022-11-05T06:56:08.214Z,8.70
2022-11-05T06:58:36.100Z,8.70
2022-11-05T07:01:05.261Z,8.70
2022-11-05T07:03:51.980Z,8.70
2022-11-05T07:06:18.670Z,8.60
2022-11-05T07:08:51.791Z,8.60
2022-11-05T07:14:04.926Z,8.60
2022-11-05T07:16:31.985Z,8.50
2022-11-05T07:18:58.542Z,8.50
2022-11-05T07:21:52.998Z,8.50
2022-11-05T07:32:46.515Z,11.00
2022-11-05T07:35:13.081Z,13.00
2022-11-05T07:37:50.609Z,14.90
2022-11-05T07:40:22.359Z,16.70
2022-11-05T07:42:51.979Z,18.20
2022-11-05T07:45:18.814Z,18.50
2022-11-05T07:47:56.516Z,18.40
2022-11-05T07:50:42.287Z,17.90
2022-11-05T07:56:08.097Z,15.80
2022-11-05T07:58:41.414Z,14.80
2022-11-05T08:01:18.554Z,14.10
2022-11-05T08:03:46.475Z,13.50
2022-11-05T08:06:15.220Z,13.00
2022-11-05T08:09:18.990Z,12.80
2022-11-05T08:11:53.096Z,12.70
2022-11-05T08:14:28.375Z,12.80
2022-11-05T08:16:59.114Z,12.90
2022-11-05T08:19:26.758Z,13.10
2022-11-05T08:22:14.621Z,13.40
2022-11-05T08:28:24.382Z,14.30
2022-11-05T08:31:00.727Z,14.10
2022-11-05T08:33:30.067Z,13.60
2022-11-05T08:36:06.044Z,13.30
2022-11-05T08:38:43.973Z,12.90
2022-11-05T08:41:13.594Z,12.60
2022-11-05T08:46:58.782Z,12.20
2022-11-05T08:49:26.386Z,12.00
2022-11-05T08:51:52.794Z,12.00
2022-11-05T08:54:19.240Z,12.30
2022-11-05T08:56:45.681Z,13.20
2022-11-05T08:59:15.371Z,14.70
2022-11-05T09:01:42.172Z,16.00
2022-11-05T09:04:09.039Z,16.50
2022-11-05T09:06:42.823Z,16.20
2022-11-05T09:09:21.840Z,15.70
2022-11-05T09:12:12.639Z,15.20
2022-11-05T09:14:40.098Z,14.70
2022-11-05T09:17:13.040Z,14.20
2022-11-05T09:19:44.947Z,13.90
2022-11-05T09:22:12.778Z,13.60
2022-11-05T09:24:44.373Z,13.40
2022-11-05T09:27:28.381Z,13.10
2022-11-05T09:29:54.845Z,13.00
2022-11-05T09:32:23.023Z,13.00
2022-11-05T09:34:51.750Z,12.90
2022-11-05T09:37:21.955Z,12.90
2022-11-05T09:39:51.404Z,14.00
2022-11-05T09:42:23.543Z,16.50
2022-11-05T09:45:11.935Z,19.50
2022-11-05T09:47:59.790Z,22.30
2022-11-05T09:50:40.403Z,25.20
2022-11-05T09:53:13.918Z,27.40
2022-11-05T09:58:46.049Z,30.00
2022-11-05T10:01:22.538Z,29.90
2022-11-05T10:04:01.182Z,29.40
2022-11-05T10:06:52.603Z,28.60
2022-11-05T10:12:20.839Z,26.80
2022-11-05T10:15:03.503Z,24.10
2022-11-05T10:17:37.856Z,23.10
2022-11-05T10:26:25.016Z,26.00
2022-11-05T10:29:00.647Z,27.80
2022-11-05T10:31:35.668Z,28.70
2022-11-05T10:34:17.891Z,29.50
2022-11-05T10:36:55.162Z,30.00
2022-11-05T10:39:31.507Z,29.30
2022-11-05T10:42:22.864Z,29.20
2022-11-05T10:44:53.387Z,29.60
2022-11-05T10:50:44.542Z,31.00
2022-11-05T10:59:36.662Z,28.60
2022-11-05T11:02:15.699Z,26.80
2022-11-05T11:04:51.991Z,25.30
2022-11-05T11:07:27.651Z,25.70
2022-11-05T11:12:46.178Z,27.10
2022-11-05T11:15:21.139Z,27.70
2022-11-05T11:17:54.836Z,27.00
2022-11-05T11:20:29.516Z,25.20
2022-11-05T11:23:01.801Z,23.30
2022-11-05T11:25:56.919Z,22.20
2022-11-05T11:31:49.693Z,24.20
2022-11-05T11:34:30.725Z,25.30
2022-11-05T11:37:16.673Z,25.50
2022-11-05T11:39:50.452Z,24.60
2022-11-05T11:42:22.822Z,24.70
2022-11-05T11:45:04.677Z,24.30
2022-11-05T11:47:40.865Z,22.80
2022-11-05T11:50:28.595Z,21.50
2022-11-05T11:52:59.554Z,20.20
2022-11-05T11:55:28.299Z,19.20
2022-11-05T11:58:09.105Z,18.40
2022-11-05T12:00:47.480Z,17.90
2022-11-05T12:03:17.259Z,17.60
2022-11-05T12:06:19.853Z,17.30
2022-11-05T12:09:09.405Z,16.90
2022-11-05T12:11:55.058Z,16.80
2022-11-05T12:14:46.871Z,16.50
2022-11-05T12:17:25.663Z,16.20
2022-11-05T12:20:16.636Z,15.90
2022-11-05T12:23:06.839Z,15.30
2022-11-05T12:25:43.860Z,15.20
2022-11-05T12:31:12.388Z,15.10
2022-11-05T12:33:46.800Z,14.90
2022-11-05T12:36:54.721Z,15.10
2022-11-05T12:39:36.411Z,14.90
2022-11-05T12:42:25.134Z,14.80
2022-11-05T12:45:05.398Z,14.60
2022-11-05T12:47:51.192Z,14.30
2022-11-05T12:50:34.976Z,14.30
2022-11-05T12:53:25.126Z,14.20
2022-11-05T12:55:53.930Z,14.10
2022-11-05T12:58:21.901Z,14.10
2022-11-05T13:00:57.072Z,14.10
2022-11-05T13:03:38.331Z,14.00
2022-11-05T13:06:19.669Z,13.80
2022-11-05T13:08:56.949Z,13.70
2022-11-05T13:11:34.633Z,13.60
2022-11-05T13:14:09.850Z,13.40
2022-11-05T13:16:49.686Z,13.30
2022-11-05T13:19:18.709Z,13.20
2022-11-05T13:21:52.630Z,13.10
2022-11-05T13:24:35.677Z,13.00
2022-11-05T13:27:21.025Z,13.00
2022-11-05T13:29:55.566Z,12.90
2022-11-05T13:32:32.575Z,12.90
2022-11-05T13:35:09.849Z,12.80
2022-11-05T13:38:02.194Z,12.70
2022-11-05T13:40:56.246Z,12.50
2022-11-05T13:43:40.661Z,12.00
2022-11-05T13:46:16.371Z,11.60
2022-11-05T13:48:50.881Z,11.40
2022-11-05T13:51:39.316Z,11.20
2022-11-05T13:54:10.440Z,11.10
2022-11-05T13:57:00.845Z,11.10
2022-11-05T13:59:33.026Z,11.20
2022-11-05T14:02:29.841Z,11.20
2022-11-05T14:05:01.071Z,11.30
2022-11-05T14:07:35.791Z,11.40
2022-11-05T14:10:11.503Z,11.40
2022-11-05T14:12:42.265Z,11.40
2022-11-05T14:15:18.147Z,11.50
2022-11-05T14:18:04.350Z,11.50
2022-11-05T14:20:37.180Z,11.50
2022-11-05T14:23:22.776Z,11.50
2022-11-05T14:25:54.944Z,11.40
2022-11-05T14:28:29.129Z,11.40
2022-11-05T14:31:02.645Z,11.40
2022-11-05T14:33:44.350Z,11.40
2022-11-05T14:36:22.561Z,11.50
2022-11-05T14:39:01.509Z,11.50
2022-11-05T14:41:34.490Z,11.60
2022-11-05T14:44:12.698Z,11.60
2022-11-05T14:46:46.062Z,11.70
2022-11-05T14:49:22.817Z,11.60
2022-11-05T14:51:56.950Z,11.60
2022-11-05T14:54:41.572Z,11.60
2022-11-05T14:57:18.239Z,11.60
2022-11-05T14:59:58.340Z,11.60
2022-11-05T15:02:30.494Z,11.50
2022-11-05T15:05:30.825Z,11.40
2022-11-05T15:08:03.066Z,11.40
2022-11-05T15:10:31.757Z,11.40
2022-11-05T15:13:05.554Z,11.30
2022-11-05T15:15:38.966Z,11.30
2022-11-05T15:18:09.194Z,11.20
2022-11-05T15:20:40.394Z,11.10
2022-11-05T15:23:10.409Z,11.00
2022-11-05T15:25:51.845Z,10.90
2022-11-05T15:28:19.499Z,10.80
2022-11-05T15:31:17.923Z,10.80
2022-11-05T15:33:46.644Z,10.70
2022-11-05T15:36:15.860Z,10.70
2022-11-05T15:38:52.098Z,10.60
2022-11-05T15:41:35.322Z,10.60
2022-11-05T15:44:06.716Z,10.50
2022-11-05T15:46:33.227Z,10.50
2022-11-05T15:49:03.671Z,10.50
2022-11-05T15:51:30.312Z,10.50
2022-11-05T15:56:57.056Z,10.50
2022-11-05T15:59:28.782Z,10.50
2022-11-05T16:01:56.509Z,10.40
2022-11-05T16:04:26.851Z,10.40
2022-11-05T16:06:54.562Z,10.30
2022-11-05T16:09:31.118Z,10.30
2022-11-05T16:12:16.475Z,10.20
2022-11-05T16:14:46.565Z,10.10
2022-11-05T16:17:21.134Z,10.00
2022-11-05T16:19:48.344Z,10.00
2022-11-05T16:24:56.682Z,9.90
2022-11-05T16:27:23.183Z,9.80
2022-11-05T16:29:53.930Z,9.70
2022-11-05T16:32:30.619Z,9.60
2022-11-05T16:35:02.437Z,9.60
2022-11-05T16:37:31.296Z,9.60
2022-11-05T16:40:07.364Z,9.50
2022-11-05T16:42:34.278Z,9.50
2022-11-05T16:45:01.574Z,9.40
2022-11-05T16:47:28.050Z,9.40
2022-11-05T16:49:54.732Z,9.30
2022-11-05T16:52:21.245Z,9.30
2022-11-05T16:54:47.749Z,9.20
2022-11-05T16:57:26.582Z,9.20
2022-11-05T16:59:53.702Z,9.10
2022-11-05T17:02:20.366Z,9.10
2022-11-05T17:04:47.119Z,9.10
2022-11-05T17:07:13.550Z,9.00
2022-11-05T17:09:40.035Z,8.90
2022-11-05T17:12:06.538Z,8.80
2022-11-05T17:14:32.979Z,8.80
2022-11-05T17:17:00.131Z,8.70
2022-11-05T17:19:26.610Z,8.60
2022-11-05T17:21:53.036Z,8.60
2022-11-05T17:24:19.449Z,8.50
2022-11-05T17:26:45.914Z,8.40
2022-11-05T17:29:12.357Z,8.40
2022-11-05T17:31:39.170Z,8.30
2022-11-05T17:34:05.656Z,8.30
2022-11-05T17:36:32.059Z,8.20
2022-11-05T17:38:58.489Z,8.20
2022-11-05T17:41:24.948Z,8.20
2022-11-05T17:43:55.334Z,8.20
2022-11-05T17:46:22.162Z,8.10
2022-11-05T17:48:48.839Z,8.10
2022-11-05T17:51:16.727Z,8.00
2022-11-05T17:53:44.311Z,8.00
2022-11-05T17:56:11.687Z,8.00
2022-11-05T17:58:38.542Z,8.00
2022-11-05T18:01:05.924Z,7.90
2022-11-05T18:03:32.846Z,8.00
2022-11-05T18:06:02.805Z,7.90
2022-11-05T18:08:29.333Z,7.90
2022-11-05T18:10:56.101Z,7.80
2022-11-05T18:13:22.570Z,7.80
2022-11-05T18:15:52.569Z,7.80
2022-11-05T18:18:19.134Z,7.80
2022-11-05T18:20:45.968Z,7.80
2022-11-05T18:23:13.174Z,7.90
2022-11-05T18:25:41.083Z,7.90
2022-11-05T18:28:07.685Z,8.00
2022-11-05T18:30:34.185Z,8.00
2022-11-05T18:33:00.595Z,8.10
2022-11-05T18:35:27.093Z,8.10
2022-11-05T18:37:53.563Z,8.10
2022-11-05T18:40:19.998Z,8.20
2022-11-05T18:42:46.406Z,8.20
2022-11-05T18:45:12.918Z,8.30
2022-11-05T18:47:39.447Z,8.30
2022-11-05T18:50:06.463Z,8.20
2022-11-05T18:52:33.044Z,8.20
2022-11-05T18:54:59.543Z,8.30
2022-11-05T18:57:26.204Z,8.20
2022-11-05T18:59:52.638Z,8.20
2022-11-05T19:02:19.241Z,8.20
2022-11-05T19:05:06.739Z,8.20
2022-11-05T19:07:35.046Z,8.20
2022-11-05T19:10:01.465Z,8.20
2022-11-05T19:12:27.886Z,8.20
2022-11-05T19:14:59.359Z,8.10
2022-11-05T19:17:28.523Z,8.10
2022-11-05T19:19:55.304Z,8.10
2022-11-05T19:22:21.719Z,8.00
2022-11-05T19:24:48.145Z,8.00
2022-11-05T19:27:14.635Z,8.00
2022-11-05T19:29:41.028Z,8.00
2022-11-05T19:32:09.032Z,8.00
2022-11-05T19:34:35.941Z,7.90
2022-11-05T19:37:02.432Z,7.90
2022-11-05T19:39:28.954Z,7.90
2022-11-05T19:41:58.996Z,7.90
2022-11-05T19:44:29.498Z,7.90
2022-11-05T19:46:55.933Z,7.90
2022-11-05T19:49:22.722Z,7.90
2022-11-05T19:51:49.149Z,7.90
2022-11-05T19:54:15.582Z,7.90
2022-11-05T19:56:42.097Z,7.90
2022-11-05T19:59:08.509Z,7.80
2022-11-05T20:01:35.236Z,7.80
2022-11-05T20:04:05.382Z,7.80
2022-11-05T20:06:34.180Z,7.80
2022-11-05T20:11:49.650Z,7.70
2022-11-05T20:14:16.144Z,7.70
2022-11-05T20:16:43.384Z,7.70
2022-11-05T20:19:12.786Z,7.70
2022-11-05T20:21:39.309Z,7.60
2022-11-05T20:24:06.165Z,7.60
2022-11-05T20:26:33.326Z,7.60
2022-11-05T20:28:59.903Z,7.60
2022-11-05T20:31:26.338Z,7.50
2022-11-05T20:33:53.229Z,7.50
2022-11-05T20:36:21.982Z,7.50
2022-11-05T20:38:49.275Z,7.50
2022-11-05T20:41:15.899Z,7.50
2022-11-05T20:43:42.565Z,7.50
2022-11-05T20:46:11.591Z,7.50
2022-11-05T20:48:38.059Z,7.40
2022-11-05T20:51:05.768Z,7.40
2022-11-05T20:53:32.227Z,7.30
2022-11-05T20:56:01.463Z,7.40
2022-11-05T20:58:32.463Z,7.30
2022-11-05T21:00:58.861Z,7.30
2022-11-05T21:03:27.069Z,7.20
2022-11-05T21:05:56.260Z,7.20
2022-11-05T21:08:22.754Z,7.20
2022-11-05T21:10:51.348Z,7.30
2022-11-05T21:13:18.479Z,7.30
2022-11-05T21:15:50.024Z,7.20
2022-11-05T21:18:20.334Z,7.20
2022-11-05T21:20:46.937Z,7.20
2022-11-05T21:23:13.779Z,7.30
2022-11-05T21:25:40.779Z,7.30
2022-11-05T21:28:07.769Z,7.20
2022-11-05T21:30:35.914Z,7.20
2022-11-05T21:33:02.478Z,7.20
2022-11-05T21:35:28.930Z,7.30
2022-11-05T21:37:55.522Z,7.20
2022-11-05T21:40:22.149Z,7.30
2022-11-05T21:42:48.675Z,7.20
2022-11-05T21:45:15.527Z,7.30
2022-11-05T21:47:41.942Z,7.30
2022-11-05T21:50:08.374Z,7.30
2022-11-05T21:52:53.549Z,7.30
2022-11-05T21:55:40.202Z,7.30
2022-11-05T21:58:35.867Z,7.30
2022-11-05T22:01:02.682Z,7.30
2022-11-05T22:03:29.161Z,7.30
2022-11-05T22:05:56.274Z,7.30
2022-11-05T22:08:22.730Z,7.40
2022-11-05T22:10:49.128Z,7.40
2022-11-05T22:13:15.655Z,7.40
2022-11-05T22:15:42.058Z,7.40
2022-11-05T22:18:08.648Z,7.40
2022-11-05T22:20:37.129Z,7.40
2022-11-05T22:23:06.335Z,7.50
2022-11-05T22:25:36.637Z,7.50
2022-11-05T22:28:12.209Z,7.50
2022-11-05T22:30:38.866Z,7.60
2022-11-05T22:33:05.354Z,7.60
2022-11-05T22:35:31.753Z,7.60
2022-11-05T22:37:58.162Z,7.60
2022-11-05T22:40:24.767Z,7.60
2022-11-05T22:42:51.347Z,7.60
2022-11-05T22:45:18.223Z,7.60
2022-11-05T22:47:44.657Z,7.60
2022-11-05T22:50:11.151Z,7.50
2022-11-05T22:52:37.650Z,7.50
2022-11-05T22:55:06.024Z,7.50
2022-11-05T22:57:32.483Z,7.50
2022-11-05T22:59:58.921Z,7.40
2022-11-05T23:02:25.523Z,7.40
2022-11-05T23:04:52.072Z,7.40
2022-11-05T23:07:37.389Z,7.50
2022-11-05T23:10:22.548Z,7.40
2022-11-05T23:12:49.065Z,7.50
2022-11-05T23:15:38.611Z,7.50
2022-11-05T23:18:23.718Z,7.50
2022-11-05T23:21:08.657Z,7.50
2022-11-05T23:23:53.847Z,7.40
2022-11-05T23:26:38.799Z,7.40
2022-11-05T23:29:05.288Z,7.40
2022-11-05T23:31:50.536Z,7.40
2022-11-05T23:34:16.948Z,7.40
2022-11-05T23:37:01.997Z,7.30
2022-11-05T23:39:28.400Z,7.30
2022-11-05T23:42:13.390Z,7.30
2022-11-05T23:44:58.738Z,7.30
2022-11-05T23:47:43.702Z,7.30
2022-11-05T23:50:10.150Z,7.30
2022-11-05T23:52:36.561Z,7.30
2022-11-05T23:55:03.152Z,7.30
2022-11-05T23:57:29.574Z,7.20
2022-11-05T23:59:55.999Z,7.20
